Terminal Aerodrome Forecast
Issued by NWS Cleveland, OH

Home | Current Version | Previous Version | Graphics & Text | Print | Product List | Glossary On
Versions: 1 2 3 4 5 6 7 8 9 10 11 12 13 14 15 16 17
395
FTUS41 KCLE 211723
TAFERI
TAF
KERI 211723Z 2118/2218 28008KT P6SM FEW045
     FM220000 VRB03KT P6SM SKC
     FM221200 16006KT P6SM VCSH BKN070 OVC100=

USA.gov is the U.S. government's official web portal to all federal, state and local government web resources and services.